createdAt,value
2022-12-05T00:01:32.551Z,21.67
2022-12-05T00:04:01.217Z,23.48
2022-12-05T00:06:29.842Z,18.77
2022-12-05T00:08:57.333Z,18.80
2022-12-05T00:11:27.012Z,18.38
2022-12-05T00:13:55.347Z,16.75
2022-12-05T00:16:24.298Z,16.05
2022-12-05T00:18:51.249Z,15.68
2022-12-05T00:21:21.024Z,13.80
2022-12-05T00:23:48.145Z,13.10
2022-12-05T00:26:15.163Z,12.77
2022-12-05T00:28:41.978Z,12.40
2022-12-05T00:31:14.723Z,13.32
2022-12-05T00:33:41.280Z,13.45
2022-12-05T00:36:18.185Z,14.35
2022-12-05T00:38:44.986Z,13.35
2022-12-05T00:41:21.135Z,13.88
2022-12-05T00:43:47.714Z,12.40
2022-12-05T00:46:20.397Z,13.27
2022-12-05T00:48:47.573Z,14.25
2022-12-05T00:51:20.132Z,14.57
2022-12-05T00:53:47.619Z,14.55
2022-12-05T00:56:20.185Z,14.65
2022-12-05T00:58:47.787Z,13.80
2022-12-05T01:01:24.965Z,14.48
2022-12-05T01:03:56.312Z,13.15
2022-12-05T01:06:23.756Z,11.25
2022-12-05T01:08:51.779Z,12.10
2022-12-05T01:11:19.581Z,12.75
2022-12-05T01:13:46.785Z,12.38
2022-12-05T01:16:19.228Z,12.43
2022-12-05T01:18:45.879Z,11.65
2022-12-05T01:21:12.663Z,14.13
2022-12-05T01:23:39.512Z,13.07
2022-12-05T01:26:08.774Z,13.07
2022-12-05T01:28:36.325Z,14.40
2022-12-05T01:31:17.260Z,14.18
2022-12-05T01:33:43.809Z,15.23
2022-12-05T01:36:12.495Z,15.30
2022-12-05T01:38:40.646Z,14.38
2022-12-05T01:41:09.191Z,13.98
2022-12-05T01:43:58.707Z,12.43
2022-12-05T01:46:27.291Z,12.93
2022-12-05T01:49:08.652Z,13.20
2022-12-05T01:51:37.900Z,12.85
2022-12-05T01:54:06.063Z,12.20
2022-12-05T01:56:33.385Z,11.80
2022-12-05T01:59:01.928Z,11.90
2022-12-05T02:01:28.628Z,11.45
2022-12-05T02:03:58.406Z,10.88
2022-12-05T02:06:26.554Z,9.73
2022-12-05T02:08:54.397Z,11.65
2022-12-05T02:11:23.201Z,11.80
2022-12-05T02:14:17.283Z,10.35
2022-12-05T02:17:06.862Z,12.23
2022-12-05T02:20:07.357Z,11.52
2022-12-05T02:23:11.287Z,10.85
2022-12-05T02:26:02.715Z,10.27
2022-12-05T02:28:50.420Z,10.60
2022-12-05T02:31:54.718Z,11.18
2022-12-05T02:34:39.775Z,11.65
2022-12-05T02:37:09.133Z,12.38
2022-12-05T02:39:51.524Z,13.02
2022-12-05T02:42:44.936Z,11.73
2022-12-05T02:45:15.899Z,12.93
2022-12-05T02:47:47.938Z,11.23
2022-12-05T02:50:19.370Z,14.63
2022-12-05T02:52:48.870Z,16.77
2022-12-05T02:55:17.971Z,17.48
2022-12-05T02:57:52.747Z,17.92
2022-12-05T03:00:19.388Z,17.38
2022-12-05T03:02:45.919Z,17.67
2022-12-05T03:05:24.047Z,18.67
2022-12-05T03:07:53.634Z,18.73
2022-12-05T03:10:26.030Z,17.85
2022-12-05T03:13:02.663Z,17.25
2022-12-05T03:15:35.360Z,16.85
2022-12-05T03:18:21.604Z,17.85
2022-12-05T03:20:54.541Z,16.67
2022-12-05T03:23:38.099Z,17.23
2022-12-05T03:26:32.195Z,17.90
2022-12-05T03:29:35.983Z,14.73
2022-12-05T03:32:17.138Z,16.65
2022-12-05T03:34:49.873Z,15.68
2022-12-05T03:37:32.977Z,15.68
2022-12-05T03:40:29.767Z,16.85
2022-12-05T03:43:09.614Z,17.40
2022-12-05T03:45:48.964Z,16.38
2022-12-05T03:48:34.177Z,16.05
2022-12-05T03:51:02.040Z,13.43
2022-12-05T03:53:35.666Z,13.63
2022-12-05T03:56:08.893Z,13.85
2022-12-05T03:58:45.136Z,13.32
2022-12-05T04:01:15.845Z,12.68
2022-12-05T04:03:51.740Z,12.68
2022-12-05T04:06:35.401Z,12.43
2022-12-05T04:09:06.661Z,13.43
2022-12-05T04:11:38.410Z,12.63
2022-12-05T04:14:14.006Z,13.05
2022-12-05T04:17:05.733Z,13.00
2022-12-05T04:20:00.207Z,13.82
2022-12-05T04:22:27.851Z,12.77
2022-12-05T04:25:23.711Z,12.13
2022-12-05T04:28:07.965Z,12.82
2022-12-05T04:30:53.658Z,14.25
2022-12-05T04:33:27.566Z,14.32
2022-12-05T04:35:56.595Z,12.57
2022-12-05T04:38:38.227Z,12.70
2022-12-05T04:41:09.058Z,13.77
2022-12-05T04:43:40.787Z,12.77
2022-12-05T04:46:11.557Z,15.07
2022-12-05T04:48:41.277Z,12.98
2022-12-05T04:51:09.499Z,12.60
2022-12-05T04:53:36.535Z,12.30
2022-12-05T04:56:05.020Z,12.35
2022-12-05T04:58:32.285Z,11.85
2022-12-05T05:01:14.516Z,15.88
2022-12-05T05:03:51.164Z,11.32
2022-12-05T05:06:18.320Z,13.55
2022-12-05T05:08:54.196Z,12.63
2022-12-05T05:11:29.730Z,13.27
2022-12-05T05:13:56.394Z,12.93
2022-12-05T05:16:26.435Z,11.30
2022-12-05T05:21:19.855Z,11.73
2022-12-05T05:23:46.523Z,11.80
2022-12-05T05:26:13.430Z,13.13
2022-12-05T05:28:39.939Z,11.60
2022-12-05T05:31:07.018Z,12.63
2022-12-05T05:33:35.125Z,15.43
2022-12-05T05:36:12.660Z,12.85
2022-12-05T05:38:41.481Z,12.68
2022-12-05T05:41:17.283Z,12.85
2022-12-05T05:43:44.411Z,12.95
2022-12-05T05:46:12.420Z,12.75
2022-12-05T05:48:39.710Z,12.57
2022-12-05T05:51:08.561Z,12.93
2022-12-05T05:53:35.199Z,13.27
2022-12-05T05:56:10.755Z,12.68
2022-12-05T05:58:37.790Z,14.70
2022-12-05T06:01:10.600Z,13.25
2022-12-05T06:03:38.595Z,12.90
2022-12-05T06:06:08.262Z,12.68
2022-12-05T06:08:37.400Z,12.73
2022-12-05T06:11:08.686Z,12.83
2022-12-05T06:13:35.235Z,13.10
2022-12-05T06:16:05.015Z,12.88
2022-12-05T06:18:31.776Z,12.73
2022-12-05T06:20:58.970Z,11.85
2022-12-05T06:23:26.592Z,11.20
2022-12-05T06:25:55.255Z,11.38
2022-12-05T06:28:24.701Z,11.35
2022-12-05T06:30:51.539Z,11.65
2022-12-05T06:33:18.794Z,11.13
2022-12-05T06:35:46.244Z,11.48
2022-12-05T06:38:13.002Z,12.43
2022-12-05T06:40:41.069Z,10.35
2022-12-05T06:43:07.858Z,11.93
2022-12-05T06:45:34.565Z,11.35
2022-12-05T06:48:01.088Z,11.38
2022-12-05T06:50:28.250Z,11.00
2022-12-05T06:52:54.825Z,10.55
2022-12-05T06:55:22.556Z,10.82
2022-12-05T06:57:49.201Z,11.55
2022-12-05T07:00:35.792Z,15.05
2022-12-05T07:03:02.307Z,15.73
2022-12-05T07:05:28.887Z,36.17
2022-12-05T07:07:55.433Z,27.60
2022-12-05T07:10:27.586Z,14.27
2022-12-05T07:12:54.124Z,16.67
2022-12-05T07:15:20.646Z,14.32
2022-12-05T07:17:47.521Z,10.88
2022-12-05T07:20:17.759Z,11.30
2022-12-05T07:22:45.782Z,12.52
2022-12-05T07:25:12.326Z,12.60
2022-12-05T07:27:39.282Z,11.65
2022-12-05T07:30:06.545Z,11.98
2022-12-05T07:32:36.393Z,11.65
2022-12-05T07:35:03.071Z,11.80
2022-12-05T07:37:29.851Z,12.02
2022-12-05T07:39:59.802Z,13.60
2022-12-05T07:44:55.102Z,14.55
2022-12-05T07:47:21.853Z,22.45
2022-12-05T07:49:48.385Z,24.40
2022-12-05T07:52:15.427Z,16.52
2022-12-05T07:54:42.017Z,11.80
2022-12-05T07:57:08.521Z,11.20
2022-12-05T07:59:35.018Z,11.43
2022-12-05T08:02:01.574Z,10.55
2022-12-05T08:04:28.249Z,12.68
2022-12-05T08:06:54.732Z,11.43
2022-12-05T08:09:21.270Z,11.93
2022-12-05T08:11:52.388Z,10.88
2022-12-05T08:14:19.721Z,11.45
2022-12-05T08:16:46.353Z,11.85
2022-12-05T08:19:13.732Z,11.38
2022-12-05T08:21:40.374Z,10.85
2022-12-05T08:24:07.719Z,10.27
2022-12-05T08:26:36.039Z,11.48
2022-12-05T08:29:05.797Z,11.35
2022-12-05T08:31:35.527Z,13.63
2022-12-05T08:34:02.505Z,11.60
2022-12-05T08:36:30.903Z,12.65
2022-12-05T08:39:00.183Z,11.38
2022-12-05T08:41:30.101Z,11.68
2022-12-05T08:46:24.084Z,11.27
2022-12-05T08:48:51.533Z,11.10
2022-12-05T08:51:18.066Z,12.07
2022-12-05T08:53:45.046Z,10.18
2022-12-05T08:56:12.896Z,10.32
2022-12-05T08:58:39.868Z,11.00
2022-12-05T09:01:09.607Z,10.27
2022-12-05T09:03:36.433Z,11.20
2022-12-05T09:06:10.191Z,10.57
2022-12-05T09:08:37.662Z,12.45
2022-12-05T09:11:18.387Z,11.32
2022-12-05T09:13:45.189Z,10.30
2022-12-05T09:16:14.412Z,10.00
2022-12-05T09:18:42.760Z,11.77
2022-12-05T09:21:21.434Z,11.55
2022-12-05T09:23:48.336Z,9.70
2022-12-05T09:26:16.911Z,10.98
2022-12-05T09:28:44.236Z,14.48
2022-12-05T09:31:16.740Z,12.95
2022-12-05T09:33:43.881Z,11.88
2022-12-05T09:36:18.715Z,12.65
2022-12-05T09:38:45.292Z,11.10
2022-12-05T09:42:09.135Z,10.82
2022-12-05T09:45:03.903Z,11.20
2022-12-05T09:48:12.441Z,11.13
2022-12-05T09:50:49.686Z,12.18
2022-12-05T09:53:30.824Z,12.52
2022-12-05T09:56:09.250Z,12.65
2022-12-05T09:58:46.133Z,13.30
2022-12-05T10:01:34.665Z,13.60
2022-12-05T10:04:13.309Z,12.00
2022-12-05T10:07:01.694Z,12.95
2022-12-05T10:09:53.272Z,13.82
2022-12-05T10:12:41.422Z,13.05
2022-12-05T10:15:26.593Z,12.77
2022-12-05T10:18:03.608Z,12.55
2022-12-05T10:21:08.560Z,12.52
2022-12-05T10:23:56.704Z,12.98
2022-12-05T10:26:25.065Z,14.77
2022-12-05T10:31:31.371Z,12.65
2022-12-05T10:34:17.475Z,12.30
2022-12-05T10:37:23.310Z,11.82
2022-12-05T10:39:51.160Z,12.55
2022-12-05T10:42:25.209Z,11.20
2022-12-05T10:45:02.878Z,11.20
2022-12-05T10:47:30.571Z,11.57
2022-12-05T10:50:07.972Z,16.95
2022-12-05T10:52:35.556Z,22.80
2022-12-05T10:55:06.629Z,14.10
2022-12-05T10:57:33.141Z,12.05
2022-12-05T11:00:11.288Z,12.68
2022-12-05T11:02:38.500Z,12.07
2022-12-05T11:05:05.390Z,11.73
2022-12-05T11:07:43.929Z,13.18
2022-12-05T11:10:26.549Z,12.73
2022-12-05T11:12:56.005Z,12.45
2022-12-05T11:15:25.675Z,12.45
2022-12-05T11:17:57.895Z,11.48
2022-12-05T11:20:24.318Z,10.73
2022-12-05T11:22:56.467Z,11.95
2022-12-05T11:25:31.159Z,12.75
2022-12-05T11:28:21.405Z,12.20
2022-12-05T11:31:01.639Z,13.10
2022-12-05T11:33:33.137Z,12.18
2022-12-05T11:36:20.704Z,12.52
2022-12-05T11:38:47.451Z,13.48
2022-12-05T11:41:33.364Z,13.25
2022-12-05T11:44:24.735Z,13.48
2022-12-05T11:47:06.422Z,14.13
2022-12-05T11:50:08.189Z,13.55
2022-12-05T11:52:52.590Z,15.60
2022-12-05T11:55:42.213Z,14.07
2022-12-05T11:58:47.411Z,23.50
2022-12-05T12:01:43.344Z,15.27
2022-12-05T12:04:12.784Z,23.83
2022-12-05T12:06:57.300Z,31.50
2022-12-05T12:09:23.807Z,37.35
2022-12-05T12:12:14.698Z,67.57
2022-12-05T12:15:04.031Z,18.00
2022-12-05T12:17:54.246Z,15.32
2022-12-05T12:20:34.733Z,12.55
2022-12-05T12:23:22.895Z,15.63
2022-12-05T12:26:01.984Z,13.98
2022-12-05T12:29:16.054Z,16.02
2022-12-05T12:32:05.391Z,19.13
2022-12-05T12:34:42.051Z,15.82
2022-12-05T12:37:30.520Z,24.70
2022-12-05T12:40:22.320Z,15.35
2022-12-05T12:43:51.486Z,16.58
2022-12-05T12:46:11.476Z,14.90
2022-12-05T12:49:19.544Z,18.50
2022-12-05T12:51:54.095Z,13.90
2022-12-05T12:54:54.752Z,13.98
2022-12-05T12:57:28.265Z,13.07
2022-12-05T12:59:54.820Z,13.07
2022-12-05T13:02:36.304Z,14.75
2022-12-05T13:05:39.174Z,12.65
2022-12-05T13:08:28.749Z,12.85
2022-12-05T13:10:58.485Z,14.23
2022-12-05T13:13:36.759Z,14.05
2022-12-05T13:16:07.839Z,13.32
2022-12-05T13:18:35.446Z,14.02
2022-12-05T13:21:11.320Z,13.32
2022-12-05T13:23:47.495Z,13.48
2022-12-05T13:26:15.152Z,12.15
2022-12-05T13:28:52.815Z,12.43
2022-12-05T13:31:34.407Z,13.05
2022-12-05T13:34:01.029Z,17.38
2022-12-05T13:36:46.201Z,21.52
2022-12-05T13:39:48.280Z,17.63
2022-12-05T13:42:29.204Z,22.50
2022-12-05T13:44:57.516Z,16.48
2022-12-05T13:47:39.365Z,16.27
2022-12-05T13:50:21.818Z,15.73
2022-12-05T13:52:53.286Z,14.57
2022-12-05T13:55:38.920Z,14.60
2022-12-05T13:58:20.742Z,16.27
2022-12-05T14:00:47.336Z,13.40
2022-12-05T14:03:34.160Z,15.60
2022-12-05T14:06:01.227Z,15.43
2022-12-05T14:08:30.779Z,14.13
2022-12-05T14:10:57.280Z,11.88
2022-12-05T14:13:23.828Z,12.05
2022-12-05T14:15:52.568Z,14.35
2022-12-05T14:18:23.657Z,13.10
2022-12-05T14:21:11.764Z,12.93
2022-12-05T14:23:56.741Z,13.68
2022-12-05T14:26:32.914Z,14.63
2022-12-05T14:29:11.439Z,15.02
2022-12-05T14:31:52.974Z,13.32
2022-12-05T14:34:26.006Z,13.02
2022-12-05T14:37:06.331Z,12.55
2022-12-05T14:39:42.592Z,12.85
2022-12-05T14:42:27.549Z,14.30
2022-12-05T14:44:58.047Z,12.43
2022-12-05T14:47:29.071Z,13.95
2022-12-05T14:50:20.127Z,12.68
2022-12-05T14:53:15.397Z,14.18
2022-12-05T14:55:46.396Z,13.52
2022-12-05T14:58:43.535Z,14.45
2022-12-05T15:01:18.913Z,15.52
2022-12-05T15:04:23.030Z,18.08
2022-12-05T15:07:01.319Z,17.63
2022-12-05T15:09:36.930Z,15.95
2022-12-05T15:12:14.856Z,14.50
2022-12-05T15:14:50.856Z,14.88
2022-12-05T15:17:25.415Z,14.68
2022-12-05T15:19:59.811Z,15.48
2022-12-05T15:22:28.119Z,16.02
2022-12-05T15:24:54.710Z,13.93
2022-12-05T15:27:22.123Z,15.95
2022-12-05T15:29:48.896Z,16.30
2022-12-05T15:32:21.166Z,15.98
2022-12-05T15:35:06.343Z,20.10
2022-12-05T15:37:50.735Z,19.27
2022-12-05T15:40:21.814Z,17.17
2022-12-05T15:42:50.751Z,15.00
2022-12-05T15:45:21.072Z,17.60
2022-12-05T15:47:57.253Z,13.48
2022-12-05T15:50:48.311Z,15.98
2022-12-05T15:53:39.040Z,15.68
2022-12-05T15:56:12.968Z,17.50
2022-12-05T15:59:05.727Z,18.27
2022-12-05T16:01:35.466Z,15.95
2022-12-05T16:04:16.138Z,16.60
2022-12-05T16:06:47.723Z,14.07
2022-12-05T16:09:22.819Z,15.27
2022-12-05T16:12:15.558Z,15.30
2022-12-05T16:14:59.972Z,15.77
2022-12-05T16:17:30.552Z,14.93
2022-12-05T16:20:23.048Z,14.50
2022-12-05T16:22:52.479Z,16.73
2022-12-05T16:25:25.985Z,15.23
2022-12-05T16:28:07.689Z,15.00
2022-12-05T16:30:36.344Z,16.48
2022-12-05T16:33:23.185Z,16.20
2022-12-05T16:35:50.478Z,20.08
2022-12-05T16:38:16.986Z,22.33
2022-12-05T16:40:46.242Z,21.92
2022-12-05T16:43:44.151Z,20.53
2022-12-05T16:46:14.092Z,19.45
2022-12-05T16:51:11.646Z,17.15
2022-12-05T16:53:39.485Z,18.77
2022-12-05T16:56:08.028Z,19.10
2022-12-05T16:58:35.554Z,20.13
2022-12-05T17:01:05.108Z,19.08
2022-12-05T17:03:34.782Z,18.83
2022-12-05T17:06:02.071Z,16.98
2022-12-05T17:08:28.650Z,20.10
2022-12-05T17:10:55.340Z,18.88
2022-12-05T17:13:21.858Z,18.92
2022-12-05T17:15:48.542Z,21.42
2022-12-05T17:18:21.855Z,19.25
2022-12-05T17:20:55.970Z,20.33
2022-12-05T17:23:22.463Z,22.38
2022-12-05T17:25:53.927Z,21.23
2022-12-05T17:28:21.236Z,18.15
2022-12-05T17:30:49.137Z,15.02
2022-12-05T17:33:18.329Z,16.23
2022-12-05T17:35:45.529Z,16.87
2022-12-05T17:38:12.225Z,16.27
2022-12-05T17:40:39.744Z,18.92
2022-12-05T17:43:06.461Z,18.52
2022-12-05T17:45:33.476Z,18.23
2022-12-05T17:48:00.141Z,19.33
2022-12-05T17:50:27.855Z,22.70
2022-12-05T17:53:02.831Z,21.42
2022-12-05T17:55:32.392Z,15.98
2022-12-05T17:57:58.892Z,15.75
2022-12-05T18:00:25.484Z,16.08
2022-12-05T18:02:52.651Z,15.20
2022-12-05T18:05:19.641Z,14.68
2022-12-05T18:07:46.937Z,12.77
2022-12-05T18:10:17.383Z,14.13
2022-12-05T18:12:43.986Z,12.13
2022-12-05T18:15:11.486Z,12.27
2022-12-05T18:17:38.051Z,16.05
2022-12-05T18:20:07.035Z,15.93
2022-12-05T18:22:33.663Z,15.15
2022-12-05T18:25:01.819Z,15.48
2022-12-05T18:27:29.282Z,16.70
2022-12-05T18:29:55.834Z,21.83
2022-12-05T18:32:22.631Z,22.10
2022-12-05T18:34:49.138Z,18.00
2022-12-05T18:37:16.613Z,10.85
2022-12-05T18:39:43.135Z,10.23
2022-12-05T18:42:14.937Z,10.07
2022-12-05T18:44:41.923Z,8.95
2022-12-05T18:47:08.452Z,8.82
2022-12-05T18:49:35.003Z,8.02
2022-12-05T18:52:01.507Z,6.55
2022-12-05T18:54:28.057Z,6.60
2022-12-05T18:56:54.608Z,5.47
2022-12-05T18:59:22.234Z,5.80
2022-12-05T19:01:50.004Z,5.72
2022-12-05T19:04:19.667Z,6.25
2022-12-05T19:06:52.523Z,5.90
2022-12-05T19:09:21.126Z,7.35
2022-12-05T19:11:49.807Z,6.32
2022-12-05T19:14:18.900Z,6.45
2022-12-05T19:16:47.996Z,9.27
2022-12-05T19:19:15.117Z,6.90
2022-12-05T19:21:42.244Z,9.23
2022-12-05T19:24:11.247Z,15.48
2022-12-05T19:26:37.934Z,14.45
2022-12-05T19:29:04.958Z,21.58
2022-12-05T19:31:32.096Z,13.95
2022-12-05T19:34:03.758Z,13.05
2022-12-05T19:36:33.251Z,7.65
2022-12-05T19:38:59.792Z,6.82
2022-12-05T19:41:28.874Z,8.13
2022-12-05T19:43:59.819Z,7.30
2022-12-05T19:46:29.636Z,8.07
2022-12-05T19:48:58.247Z,8.85
2022-12-05T19:51:24.960Z,8.75
2022-12-05T19:53:51.937Z,8.10
2022-12-05T19:56:24.328Z,8.23
2022-12-05T19:58:52.346Z,6.93
2022-12-05T20:01:30.887Z,7.03
2022-12-05T20:04:02.681Z,6.55
2022-12-05T20:06:35.559Z,7.80
2022-12-05T20:09:03.378Z,8.10
2022-12-05T20:11:31.327Z,9.50
2022-12-05T20:13:59.876Z,7.97
2022-12-05T20:16:27.672Z,9.40
2022-12-05T20:18:58.027Z,9.18
2022-12-05T20:21:25.603Z,8.98
2022-12-05T20:23:53.266Z,8.70
2022-12-05T20:26:22.567Z,8.32
2022-12-05T20:28:49.687Z,8.27
2022-12-05T20:31:18.258Z,7.22
2022-12-05T20:33:45.619Z,9.05
2022-12-05T20:36:15.278Z,7.88
2022-12-05T20:38:42.365Z,8.07
2022-12-05T20:41:11.695Z,9.65
2022-12-05T20:43:38.580Z,8.95
2022-12-05T20:46:16.818Z,10.70
2022-12-05T20:48:44.328Z,10.27
2022-12-05T20:51:13.418Z,11.55
2022-12-05T20:53:41.306Z,8.75
2022-12-05T20:56:19.673Z,11.43
2022-12-05T20:58:48.425Z,9.57
2022-12-05T21:01:16.660Z,8.80
2022-12-05T21:03:49.665Z,11.05
2022-12-05T21:06:24.319Z,9.48
2022-12-05T21:08:51.510Z,9.45
2022-12-05T21:11:18.458Z,9.57
2022-12-05T21:13:45.568Z,10.95
2022-12-05T21:16:14.831Z,11.60
2022-12-05T21:18:41.536Z,7.78
2022-12-05T21:21:14.651Z,12.13
2022-12-05T21:23:42.695Z,11.45
2022-12-05T21:26:13.040Z,8.48
2022-12-05T21:28:40.411Z,10.63
2022-12-05T21:31:12.452Z,9.57
2022-12-05T21:33:40.494Z,10.93
2022-12-05T21:36:08.309Z,10.38
2022-12-05T21:38:35.991Z,12.25
2022-12-05T21:41:04.109Z,9.43
2022-12-05T21:43:30.828Z,9.00
2022-12-05T21:45:57.730Z,9.52
2022-12-05T21:48:24.996Z,10.43
2022-12-05T21:50:52.301Z,8.55
2022-12-05T21:53:19.174Z,13.73
2022-12-05T21:55:45.795Z,15.98
2022-12-05T21:58:12.640Z,19.02
2022-12-05T22:00:39.608Z,13.82
2022-12-05T22:03:07.206Z,12.40
2022-12-05T22:05:33.853Z,14.10
2022-12-05T22:08:04.858Z,11.43
2022-12-05T22:10:34.745Z,10.10
2022-12-05T22:13:01.330Z,10.45
2022-12-05T22:15:27.820Z,12.73
2022-12-05T22:17:54.339Z,7.60
2022-12-05T22:20:20.838Z,7.80
2022-12-05T22:22:47.413Z,6.25
2022-12-05T22:25:14.054Z,7.78
2022-12-05T22:27:41.290Z,6.50
2022-12-05T22:30:08.545Z,6.53
2022-12-05T22:32:35.071Z,10.55
2022-12-05T22:35:04.010Z,6.53
2022-12-05T22:37:31.062Z,7.10
2022-12-05T22:39:57.913Z,7.13
2022-12-05T22:42:26.314Z,8.07
2022-12-05T22:44:52.744Z,8.77
2022-12-05T22:47:19.259Z,7.43
2022-12-05T22:49:45.740Z,7.35
2022-12-05T22:52:12.214Z,9.68
2022-12-05T22:54:39.197Z,8.45
2022-12-05T22:57:05.766Z,8.85
2022-12-05T22:59:32.599Z,8.38
2022-12-05T23:01:59.553Z,7.85
2022-12-05T23:04:26.113Z,7.15
2022-12-05T23:06:52.701Z,8.77
2022-12-05T23:09:20.566Z,7.30
2022-12-05T23:11:49.409Z,6.00
2022-12-05T23:14:15.913Z,6.43
2022-12-05T23:16:42.420Z,7.13
2022-12-05T23:19:09.286Z,7.60
2022-12-05T23:21:38.452Z,7.68
2022-12-05T23:24:11.082Z,7.10
2022-12-05T23:26:43.596Z,7.32
2022-12-05T23:29:12.386Z,6.05
2022-12-05T23:31:39.477Z,5.88
2022-12-05T23:34:06.138Z,5.93
2022-12-05T23:36:34.354Z,5.78
2022-12-05T23:39:01.474Z,5.20
2022-12-05T23:41:27.995Z,5.95
2022-12-05T23:43:55.114Z,6.50
2022-12-05T23:46:24.118Z,5.65
2022-12-05T23:48:51.465Z,6.40
2022-12-05T23:51:22.793Z,5.05
2022-12-05T23:53:54.422Z,6.15
2022-12-05T23:56:23.604Z,6.03
2022-12-05T23:58:50.504Z,5.20
